Latest Weather Observations for Fawkner Beacon

IDV60801

Issued at 6:02 pm EST Saturday 27 August 2016 (issued every 30 minutes, with the page automatically refreshed every 10 minutes)

About weather observations | Map of weather stations | Latest weather observations for VIC | Other Formats
Station Details ID: 086376 Name: FAWKNER BEACON Lat: -37.91 Lon: 144.93 Height: 17.0 m
Data from the previous 72 hours. | See also: Recent months for locations in Victoria
Date/Time
EST
Temp
°C
App
Temp
°C
Dew
Point
°C
Rel
Hum
%
Delta-T
°C
Wind Press
QNH
hPa
Press
MSL
hPa
Rain since
9am
mm
Dir  Spd
km/h
Gust
km/h
Spd
kts
Gust
kts
27/06:00pm - - - - - N 28 32 15 17 - - -
27/05:30pm - - - - - N 30 35 16 19 - - -
27/05:00pm - - - - - NNW 33 44 18 24 - - -
27/04:30pm - - - - - NNW 32 44 17 24 - - -
27/04:00pm - - - - - NNW 35 46 19 25 - - -
27/03:30pm - - - - - NW 26 32 14 17 - - -
27/03:00pm - - - - - NNW 24 32 13 17 - - -
27/02:30pm - - - - - NNW 26 32 14 17 - - -
27/02:00pm - - - - - NW 22 33 12 18 - - -
27/01:30pm - - - - - NW 19 22 10 12 - - -
27/01:00pm - - - - - NNW 22 28 12 15 - - -
27/12:30pm - - - - - NNW 20 26 11 14 - - -
27/12:00pm - - - - - NW 24 30 13 16 - - -
27/11:30am - - - - - WNW 28 33 15 18 - - -
27/11:00am - - - - - NW 26 32 14 17 - - -
27/10:30am - - - - - WNW 33 41 18 22 - - -
27/10:00am - - - - - WNW 41 48 22 26 - - -
27/09:57am - - - - - WNW 41 48 22 26 - - -
27/09:30am - - - - - NW 32 43 17 23 - - -
27/09:00am - - - - - NNW 28 33 15 18 - - -
27/08:30am - - - - - N 26 32 14 17 - - -
27/08:00am - - - - - NNW 28 32 15 17 - - -
27/07:30am - - - - - NNW 26 30 14 16 - - -
27/07:00am - - - - - NNW 26 32 14 17 - - -
27/06:30am - - - - - NNW 28 33 15 18 - - -
27/06:00am - - - - - NNW 28 33 15 18 - - -
27/05:30am - - - - - NNW 26 32 14 17 - - -
27/05:00am - - - - - NNW 28 33 15 18 - - -
27/04:30am - - - - - NW 28 32 15 17 - - -
27/04:00am - - - - - NW 28 32 15 17 - - -
27/03:30am - - - - - NW 22 28 12 15 - - -
27/03:00am - - - - - NNW 17 24 9 13 - - -
27/02:30am - - - - - NNW 17 20 9 11 - - -
27/02:00am - - - - - NNW 20 26 11 14 - - -
27/01:30am - - - - - NNW 22 24 12 13 - - -
27/01:00am - - - - - NW 22 26 12 14 - - -
27/12:30am - - - - - NW 22 26 12 14 - - -
27/12:00am - - - - - NW 22 28 12 15 - - -
 
Date/Time
EST
Temp
°C
App
Temp
°C
Dew
Point
°C
Rel
Hum
%
Delta-T
°C
Wind Press
QNH
hPa
Press
MSL
hPa
Rain since
9am
mm
Dir  Spd
km/h
Gust
km/h
Spd
kts
Gust
kts
26/11:30pm - - - - - NW 20 24 11 13 - - -
26/11:00pm - - - - - NW 20 22 11 12 - - -
26/10:30pm - - - - - NW 20 24 11 13 - - -
26/10:00pm - - - - - NW 20 22 11 12 - - -
26/09:30pm - - - - - NW 20 24 11 13 - - -
26/09:00pm - - - - - NW 20 24 11 13 - - -
26/08:30pm - - - - - NW 24 28 13 15 - - -
26/08:00pm - - - - - NW 24 26 13 14 - - -
26/07:30pm - - - - - WNW 17 20 9 11 - - -
26/07:00pm - - - - - NW 17 20 9 11 - - -
26/06:30pm - - - - - WNW 15 20 8 11 - - -
26/06:00pm - - - - - WNW 15 20 8 11 - - -
26/05:30pm - - - - - WSW 11 13 6 7 - - -
26/05:00pm - - - - - W 17 20 9 11 - - -
26/04:30pm - - - - - W 13 15 7 8 - - -
26/04:00pm - - - - - W 17 22 9 12 - - -
26/03:30pm - - - - - WNW 11 15 6 8 - - -
26/03:00pm - - - - - W 13 20 7 11 - - -
26/02:30pm - - - - - WSW 20 26 11 14 - - -
26/02:00pm - - - - - WSW 19 22 10 12 - - -
26/01:30pm - - - - - WSW 17 22 9 12 - - -
26/01:00pm - - - - - SW 24 28 13 15 - - -
26/12:30pm - - - - - WSW 24 26 13 14 - - -
26/12:00pm - - - - - WSW 28 32 15 17 - - -
26/11:30am - - - - - W 28 32 15 17 - - -
26/11:00am - - - - - WNW 20 24 11 13 - - -
26/10:30am - - - - - W 24 28 13 15 - - -
26/10:00am - - - - - W 24 28 13 15 - - -
26/09:30am - - - - - WNW 22 28 12 15 - - -
26/09:00am - - - - - WNW 24 28 13 15 - - -
26/08:30am - - - - - W 26 30 14 16 - - -
26/08:00am - - - - - WNW 22 26 12 14 - - -
26/07:30am - - - - - WNW 22 26 12 14 - - -
26/07:00am - - - - - W 22 26 12 14 - - -
26/06:30am - - - - - W 22 26 12 14 - - -
26/06:00am - - - - - W 20 24 11 13 - - -
26/05:30am - - - - - W 28 32 15 17 - - -
26/05:00am - - - - - W 26 30 14 16 - - -
26/04:30am - - - - - W 30 35 16 19 - - -
26/04:00am - - - - - WSW 32 35 17 19 - - -
26/03:30am - - - - - W 32 35 17 19 - - -
26/03:00am - - - - - W 32 35 17 19 - - -
26/02:30am - - - - - W 24 30 13 16 - - -
26/02:00am - - - - - W 22 26 12 14 - - -
26/01:30am - - - - - W 22 26 12 14 - - -
26/01:00am - - - - - W 24 28 13 15 - - -
26/12:30am - - - - - WSW 26 30 14 16 - - -
26/12:00am - - - - - W 20 24 11 13 - - -
 
Date/Time
EST
Temp
°C
App
Temp
°C
Dew
Point
°C
Rel
Hum
%
Delta-T
°C
Wind Press
QNH
hPa
Press
MSL
hPa
Rain since
9am
mm
Dir  Spd
km/h
Gust
km/h
Spd
kts
Gust
kts
25/11:30pm - - - - - W 20 24 11 13 - - -
25/11:00pm - - - - - W 22 24 12 13 - - -
25/10:30pm - - - - - WSW 22 26 12 14 - - -
25/10:00pm - - - - - SW 19 24 10 13 - - -
25/09:30pm - - - - - SW 28 35 15 19 - - -
25/09:00pm - - - - - SW 20 24 11 13 - - -
25/08:30pm - - - - - WSW 24 28 13 15 - - -
25/08:00pm - - - - - SW 20 26 11 14 - - -
25/07:41pm - - - - - SW 28 39 15 21 - - -
25/07:30pm - - - - - SSW 17 20 9 11 - - -
25/07:00pm - - - - - S 28 35 15 19 - - -
25/06:30pm - - - - - S 22 28 12 15 - - -
25/06:00pm - - - - - SSW 28 33 15 18 - - -
25/05:30pm - - - - - SSW 19 24 10 13 - - -
25/05:00pm - - - - - SSW 28 33 15 18 - - -
25/04:30pm - - - - - SSW 26 32 14 17 - - -
25/04:00pm - - - - - SSW 28 32 15 17 - - -
25/03:30pm - - - - - SSW 24 28 13 15 - - -
25/03:00pm - - - - - SSW 24 28 13 15 - - -
25/02:30pm - - - - - SSW 15 20 8 11 - - -
25/02:00pm - - - - - S 22 26 12 14 - - -
25/01:30pm - - - - - SSW 30 35 16 19 - - -
25/01:00pm - - - - - WSW 30 35 16 19 - - -
25/12:30pm - - - - - WSW 28 35 15 19 - - -
25/12:00pm - - - - - WSW 24 30 13 16 - - -
25/11:30am - - - - - WSW 20 26 11 14 - - -
25/11:00am - - - - - SW 32 35 17 19 - - -
25/10:30am - - - - - WSW 28 32 15 17 - - -
25/10:00am - - - - - WSW 30 35 16 19 - - -
25/09:30am - - - - - W 26 32 14 17 - - -
25/09:00am - - - - - WSW 30 35 16 19 - - -
25/08:30am - - - - - WSW 32 35 17 19 - - -
25/08:00am - - - - - W 26 32 14 17 - - -
25/07:30am - - - - - W 24 30 13 16 - - -
25/07:00am - - - - - W 22 26 12 14 - - -
25/06:30am - - - - - WSW 33 43 18 23 - - -
25/06:00am - - - - - W 28 33 15 18 - - -
25/05:30am - - - - - WSW 33 41 18 22 - - -
25/05:00am - - - - - WSW 30 35 16 19 - - -
25/04:30am - - - - - WSW 28 33 15 18 - - -
25/04:00am - - - - - WSW 32 35 17 19 - - -
25/03:30am - - - - - WSW 32 39 17 21 - - -
25/03:00am - - - - - WSW 30 35 16 19 - - -
25/02:30am - - - - - W 26 30 14 16 - - -
25/02:00am - - - - - W 28 32 15 17 - - -
25/01:30am - - - - - WSW 24 28 13 15 - - -
25/01:00am - - - - - WSW 28 33 15 18 - - -
25/12:30am - - - - - WSW 28 32 15 17 - - -
25/12:00am - - - - - WSW 26 30 14 16 - - -
 
Date/Time
EST
Temp
°C
App
Temp
°C
Dew
Point
°C
Rel
Hum
%
Delta-T
°C
Wind Press
QNH
hPa
Press
MSL
hPa
Rain since
9am
mm
Dir  Spd
km/h
Gust
km/h
Spd
kts
Gust
kts
24/11:30pm - - - - - WSW 24 28 13 15 - - -
24/11:00pm - - - - - WSW 22 24 12 13 - - -
24/10:30pm - - - - - SW 24 28 13 15 - - -
24/10:00pm - - - - - SW 11 15 6 8 - - -
24/09:30pm - - - - - SSW 11 13 6 7 - - -
24/09:00pm - - - - - SSW 26 35 14 19 - - -
24/08:30pm - - - - - SSE 20 30 11 16 - - -
24/08:11pm - - - - - S 30 44 16 24 - - -
24/08:00pm - - - - - S 22 26 12 14 - - -
24/07:30pm - - - - - SSE 11 13 6 7 - - -
24/07:00pm - - - - - SSE 15 20 8 11 - - -
24/06:30pm - - - - - S 22 26 12 14 - - -

Other Formats:

Comma delimited format used in spreadsheet applications
http://www.bom.gov.au/fwo/IDV60801/IDV60801.95872.axf

JavaScript Object Notation format (JSON) in row-major order
http://www.bom.gov.au/fwo/IDV60801/IDV60801.95872.json